createdAt,value
2022-08-20T00:02:10.060Z,1.15
2022-08-20T00:04:37.127Z,1.83
2022-08-20T00:07:06.771Z,0.93
2022-08-20T00:09:36.497Z,3.90
2022-08-20T00:12:05.571Z,1.83
2022-08-20T00:14:33.826Z,1.92
2022-08-20T00:17:01.211Z,2.75
2022-08-20T00:19:28.062Z,2.08
2022-08-20T00:21:55.737Z,2.00
2022-08-20T00:24:25.716Z,1.45
2022-08-20T00:26:52.981Z,1.08
2022-08-20T00:29:20.497Z,1.40
2022-08-20T00:31:50.348Z,1.40
2022-08-20T00:34:17.299Z,1.35
2022-08-20T00:36:44.217Z,2.13
2022-08-20T00:39:11.109Z,1.25
2022-08-20T00:41:38.053Z,1.33
2022-08-20T00:44:07.829Z,1.33
2022-08-20T00:46:35.285Z,1.75
2022-08-20T00:49:03.941Z,1.80
2022-08-20T00:51:47.135Z,2.42
2022-08-20T00:54:14.896Z,1.52
2022-08-20T00:56:44.071Z,2.45
2022-08-20T00:59:14.958Z,2.50
2022-08-20T01:01:55.138Z,2.03
2022-08-20T01:04:26.973Z,1.92
2022-08-20T01:06:54.472Z,3.08
2022-08-20T01:09:49.905Z,2.00
2022-08-20T01:12:09.827Z,1.27
2022-08-20T01:14:43.879Z,3.05
2022-08-20T01:17:16.113Z,2.05
2022-08-20T01:19:47.476Z,2.58
2022-08-20T01:22:38.944Z,1.92
2022-08-20T01:25:13.178Z,2.45
2022-08-20T01:27:42.543Z,3.00
2022-08-20T01:30:10.323Z,2.15
2022-08-20T01:32:37.143Z,3.47
2022-08-20T01:35:05.650Z,3.13
2022-08-20T01:37:32.576Z,3.07
2022-08-20T01:39:59.545Z,2.65
2022-08-20T01:42:34.998Z,2.30
2022-08-20T01:45:02.120Z,2.88
2022-08-20T01:53:17.680Z,2.50
2022-08-20T01:55:44.577Z,2.72
2022-08-20T01:58:11.422Z,3.38
2022-08-20T02:00:38.288Z,3.25
2022-08-20T02:03:05.114Z,2.55
2022-08-20T02:05:33.405Z,2.65
2022-08-20T02:08:00.391Z,4.65
2022-08-20T02:10:27.868Z,5.47
2022-08-20T02:13:00.384Z,3.30
2022-08-20T02:15:34.694Z,1.83
2022-08-20T02:18:08.416Z,4.78
2022-08-20T02:20:36.031Z,3.53
2022-08-20T02:23:03.879Z,3.30
2022-08-20T02:25:32.773Z,3.67
2022-08-20T02:28:03.155Z,3.65
2022-08-20T02:30:34.644Z,3.97
2022-08-20T02:33:07.185Z,4.80
2022-08-20T02:35:34.253Z,2.22
2022-08-20T02:38:01.761Z,3.58
2022-08-20T02:40:31.151Z,4.00
2022-08-20T02:43:00.003Z,3.63
2022-08-20T02:45:27.935Z,4.45
2022-08-20T02:47:56.868Z,3.22
2022-08-20T02:50:26.025Z,4.07
2022-08-20T02:52:53.417Z,6.22
2022-08-20T02:55:27.437Z,3.65
2022-08-20T02:57:59.888Z,5.45
2022-08-20T03:00:28.131Z,3.03
2022-08-20T03:02:55.066Z,3.35
2022-08-20T03:05:22.001Z,4.13
2022-08-20T03:07:53.716Z,4.78
2022-08-20T03:10:26.972Z,4.05
2022-08-20T03:12:54.441Z,6.10
2022-08-20T03:15:21.458Z,5.47
2022-08-20T03:17:48.269Z,3.58
2022-08-20T03:20:15.230Z,5.18
2022-08-20T03:22:42.459Z,4.22
2022-08-20T03:25:10.727Z,3.58
2022-08-20T03:27:38.029Z,3.78
2022-08-20T03:30:08.500Z,5.90
2022-08-20T03:32:35.411Z,4.70
2022-08-20T03:35:02.500Z,4.28
2022-08-20T03:37:34.627Z,6.60
2022-08-20T03:40:01.820Z,4.97
2022-08-20T03:42:28.730Z,4.38
2022-08-20T03:44:59.088Z,3.55
2022-08-20T03:47:26.512Z,4.55
2022-08-20T03:50:00.947Z,3.75
2022-08-20T03:52:29.376Z,4.60
2022-08-20T03:54:56.544Z,4.57
2022-08-20T03:57:23.950Z,4.95
2022-08-20T03:59:54.693Z,8.02
2022-08-20T04:02:25.637Z,4.60
2022-08-20T04:04:52.463Z,6.20
2022-08-20T04:07:25.810Z,5.13
2022-08-20T04:09:53.989Z,5.57
2022-08-20T04:12:21.119Z,6.43
2022-08-20T04:14:48.199Z,5.72
2022-08-20T04:17:17.948Z,4.20
2022-08-20T04:19:46.376Z,6.97
2022-08-20T04:22:16.556Z,4.75
2022-08-20T04:24:44.015Z,4.57
2022-08-20T04:27:11.899Z,4.50
2022-08-20T04:29:43.028Z,4.47
2022-08-20T04:32:09.967Z,4.78
2022-08-20T04:34:36.899Z,5.38
2022-08-20T04:37:04.464Z,5.57
2022-08-20T04:39:31.435Z,4.88
2022-08-20T04:41:58.405Z,5.70
2022-08-20T04:44:25.349Z,5.00
2022-08-20T04:46:52.168Z,5.82
2022-08-20T04:49:20.561Z,6.95
2022-08-20T04:51:47.357Z,2.83
2022-08-20T04:54:14.505Z,4.65
2022-08-20T04:56:41.308Z,4.97
2022-08-20T04:59:08.248Z,6.40
2022-08-20T05:01:35.564Z,6.97
2022-08-20T05:04:02.572Z,4.90
2022-08-20T05:06:31.829Z,4.97
2022-08-20T05:09:00.253Z,3.60
2022-08-20T05:11:35.802Z,4.30
2022-08-20T05:14:08.907Z,6.28
2022-08-20T05:16:40.282Z,6.78
2022-08-20T05:19:09.578Z,5.40
2022-08-20T05:21:37.212Z,5.60
2022-08-20T05:24:04.781Z,5.43
2022-08-20T05:26:33.144Z,5.55
2022-08-20T05:28:59.875Z,5.22
2022-08-20T05:31:32.158Z,4.40
2022-08-20T05:34:09.247Z,6.25
2022-08-20T05:36:40.340Z,5.25
2022-08-20T05:39:08.444Z,4.63
2022-08-20T05:41:35.183Z,7.38
2022-08-20T05:44:01.969Z,5.28
2022-08-20T05:46:31.245Z,5.60
2022-08-20T05:48:59.504Z,5.82
2022-08-20T05:51:27.457Z,4.88
2022-08-20T05:53:54.200Z,5.40
2022-08-20T05:56:27.068Z,5.20
2022-08-20T05:58:54.172Z,5.47
2022-08-20T06:01:21.157Z,6.43
2022-08-20T06:04:06.443Z,7.10
2022-08-20T06:06:44.639Z,6.57
2022-08-20T06:09:12.535Z,4.65
2022-08-20T06:11:39.452Z,5.45
2022-08-20T06:14:06.242Z,5.32
2022-08-20T06:16:33.093Z,6.38
2022-08-20T06:18:59.979Z,6.45
2022-08-20T06:21:29.777Z,5.93
2022-08-20T06:23:57.770Z,4.03
2022-08-20T06:26:30.538Z,4.75
2022-08-20T06:31:34.983Z,6.45
2022-08-20T06:34:02.011Z,6.68
2022-08-20T06:36:28.873Z,5.95
2022-08-20T06:38:58.293Z,6.05
2022-08-20T06:41:36.918Z,5.53
2022-08-20T06:44:04.896Z,4.88
2022-08-20T06:46:32.191Z,5.40
2022-08-20T06:51:26.581Z,5.78
2022-08-20T06:53:53.569Z,7.05
2022-08-20T06:56:20.367Z,8.35
2022-08-20T06:58:47.084Z,9.40
2022-08-20T07:01:13.922Z,11.15
2022-08-20T07:03:55.631Z,10.82
2022-08-20T07:06:25.838Z,10.32
2022-08-20T07:08:56.234Z,10.05
2022-08-20T07:11:27.807Z,10.73
2022-08-20T07:13:56.780Z,12.73
2022-08-20T07:16:23.793Z,7.75
2022-08-20T07:18:50.644Z,8.60
2022-08-20T07:21:17.714Z,8.05
2022-08-20T07:23:45.100Z,9.98
2022-08-20T07:26:12.958Z,8.15
2022-08-20T07:28:39.811Z,7.15
2022-08-20T07:31:25.333Z,10.52
2022-08-20T07:33:53.739Z,10.68
2022-08-20T07:36:21.424Z,10.35
2022-08-20T07:38:50.791Z,9.52
2022-08-20T07:41:17.784Z,12.50
2022-08-20T07:43:45.905Z,10.77
2022-08-20T07:46:20.529Z,11.32
2022-08-20T07:48:49.901Z,10.55
2022-08-20T07:51:19.862Z,9.55
2022-08-20T07:56:21.662Z,9.43
2022-08-20T07:58:52.165Z,12.20
2022-08-20T08:01:25.887Z,10.68
2022-08-20T08:03:53.146Z,11.10
2022-08-20T08:06:29.082Z,8.85
2022-08-20T08:09:03.509Z,7.13
2022-08-20T08:11:32.070Z,12.57
2022-08-20T08:13:59.822Z,7.18
2022-08-20T08:16:28.336Z,9.80
2022-08-20T08:18:56.881Z,11.48
2022-08-20T08:21:24.718Z,9.13
2022-08-20T08:23:51.536Z,10.20
2022-08-20T08:26:19.403Z,6.25
2022-08-20T08:28:46.631Z,6.75
2022-08-20T08:31:14.576Z,7.72
2022-08-20T08:33:41.884Z,9.43
2022-08-20T08:36:12.594Z,6.53
2022-08-20T08:38:41.167Z,7.38
2022-08-20T08:41:12.484Z,6.90
2022-08-20T08:43:39.344Z,6.25
2022-08-20T08:46:10.053Z,9.07
2022-08-20T08:48:44.385Z,7.22
2022-08-20T08:51:13.546Z,8.45
2022-08-20T08:53:53.537Z,6.50
2022-08-20T08:56:25.491Z,8.60
2022-08-20T08:58:55.613Z,7.75
2022-08-20T09:01:53.969Z,10.70
2022-08-20T09:04:10.621Z,9.20
2022-08-20T09:06:37.439Z,7.00
2022-08-20T09:09:06.636Z,8.43
2022-08-20T09:11:48.987Z,7.65
2022-08-20T09:14:15.742Z,7.47
2022-08-20T09:16:52.330Z,9.07
2022-08-20T09:19:20.385Z,8.70
2022-08-20T09:21:47.258Z,7.47
2022-08-20T09:24:14.097Z,5.85
2022-08-20T09:26:41.233Z,8.63
2022-08-20T09:29:08.122Z,8.25
2022-08-20T09:31:35.725Z,8.05
2022-08-20T09:36:32.726Z,10.90
2022-08-20T09:39:00.560Z,8.30
2022-08-20T09:41:29.444Z,7.63
2022-08-20T09:43:56.216Z,9.10
2022-08-20T09:46:27.522Z,7.88
2022-08-20T09:48:54.867Z,8.43
2022-08-20T09:51:22.094Z,8.43
2022-08-20T09:53:49.007Z,6.93
2022-08-20T09:56:16.065Z,8.07
2022-08-20T09:58:52.088Z,7.13
2022-08-20T10:01:20.912Z,7.68
2022-08-20T10:03:49.160Z,5.10
2022-08-20T10:06:17.880Z,7.53
2022-08-20T10:08:44.793Z,8.02
2022-08-20T10:11:12.127Z,5.72
2022-08-20T10:13:38.917Z,5.88
2022-08-20T10:16:06.029Z,7.00
2022-08-20T10:18:32.781Z,7.82
2022-08-20T10:20:59.626Z,6.03
2022-08-20T10:23:26.590Z,5.13
2022-08-20T10:28:20.527Z,8.57
2022-08-20T10:30:47.321Z,7.22
2022-08-20T10:33:14.121Z,5.50
2022-08-20T10:35:40.929Z,6.05
2022-08-20T10:38:07.678Z,4.78
2022-08-20T10:40:34.605Z,9.13
2022-08-20T10:43:01.674Z,5.65
2022-08-20T10:45:28.452Z,4.50
2022-08-20T10:47:55.312Z,4.90
2022-08-20T10:50:22.192Z,7.97
2022-08-20T10:52:49.014Z,5.88
2022-08-20T10:55:15.994Z,5.82
2022-08-20T10:57:43.613Z,4.18
2022-08-20T11:00:15.484Z,6.60
2022-08-20T11:02:42.552Z,4.57
2022-08-20T11:05:09.759Z,5.40
2022-08-20T11:07:55.356Z,4.47
2022-08-20T11:10:25.187Z,5.38
2022-08-20T11:12:52.052Z,3.80
2022-08-20T11:15:18.951Z,4.82
2022-08-20T11:17:45.945Z,6.25
2022-08-20T11:20:15.447Z,4.50
2022-08-20T11:25:09.678Z,3.78
2022-08-20T11:27:42.535Z,5.68
2022-08-20T11:30:16.245Z,5.55
2022-08-20T11:32:43.066Z,5.43
2022-08-20T11:35:40.410Z,4.47
2022-08-20T11:37:58.417Z,6.20
2022-08-20T11:40:26.249Z,4.73
2022-08-20T11:43:13.507Z,5.80
2022-08-20T11:45:40.434Z,4.25
2022-08-20T11:48:07.209Z,4.35
2022-08-20T11:50:34.309Z,4.10
2022-08-20T11:53:01.753Z,3.60
2022-08-20T11:55:30.370Z,5.22
2022-08-20T11:57:59.785Z,4.25
2022-08-20T12:00:31.885Z,4.97
2022-08-20T12:02:59.551Z,3.83
2022-08-20T12:05:27.421Z,5.25
2022-08-20T12:07:54.292Z,4.60
2022-08-20T12:10:23.065Z,3.95
2022-08-20T12:12:50.023Z,3.30
2022-08-20T12:15:16.846Z,4.90
2022-08-20T12:20:12.756Z,4.20
2022-08-20T12:22:39.957Z,5.53
2022-08-20T12:25:08.169Z,4.75
2022-08-20T12:27:36.188Z,5.50
2022-08-20T12:30:12.396Z,5.15
2022-08-20T12:32:39.695Z,3.83
2022-08-20T12:35:07.916Z,5.60
2022-08-20T12:37:34.897Z,4.22
2022-08-20T12:40:04.681Z,3.58
2022-08-20T12:42:31.507Z,5.07
2022-08-20T12:45:01.893Z,5.18
2022-08-20T12:47:34.781Z,5.63
2022-08-20T12:50:07.625Z,3.67
2022-08-20T12:52:34.764Z,3.97
2022-08-20T12:55:02.906Z,3.50
2022-08-20T12:57:31.605Z,3.75
2022-08-20T13:00:00.976Z,3.72
2022-08-20T13:02:30.705Z,3.78
2022-08-20T13:05:00.106Z,3.47
2022-08-20T13:07:29.360Z,2.90
2022-08-20T13:09:56.157Z,3.90
2022-08-20T13:12:22.913Z,2.63
2022-08-20T13:17:18.356Z,3.50
2022-08-20T13:19:46.627Z,3.17
2022-08-20T13:22:14.237Z,4.15
2022-08-20T13:27:16.144Z,3.38
2022-08-20T13:29:48.060Z,3.40
2022-08-20T13:32:15.144Z,3.60
2022-08-20T13:34:43.604Z,4.13
2022-08-20T13:37:14.703Z,4.03
2022-08-20T13:39:42.235Z,5.35
2022-08-20T13:42:11.923Z,3.15
2022-08-20T13:47:15.393Z,5.50
2022-08-20T13:49:42.389Z,3.03
2022-08-20T13:52:09.270Z,4.22
2022-08-20T13:54:36.101Z,4.50
2022-08-20T13:57:09.913Z,4.50
2022-08-20T13:59:42.555Z,4.78
2022-08-20T14:02:10.739Z,4.07
2022-08-20T14:04:37.823Z,2.88
2022-08-20T14:09:46.154Z,3.30
2022-08-20T14:14:44.564Z,6.18
2022-08-20T14:17:24.447Z,5.25
2022-08-20T14:19:56.702Z,3.10
2022-08-20T14:22:28.052Z,2.65
2022-08-20T14:24:56.257Z,2.58
2022-08-20T14:27:29.019Z,3.85
2022-08-20T14:29:58.364Z,4.78
2022-08-20T14:32:25.365Z,2.53
2022-08-20T14:34:53.839Z,3.40
2022-08-20T14:37:24.817Z,3.47
2022-08-20T14:39:53.483Z,3.70
2022-08-20T14:42:22.941Z,3.22
2022-08-20T14:44:50.981Z,2.60
2022-08-20T14:47:30.639Z,3.95
2022-08-20T14:50:04.618Z,3.60
2022-08-20T14:52:32.953Z,4.95
2022-08-20T14:54:59.786Z,3.15
2022-08-20T14:57:26.601Z,3.70
2022-08-20T14:59:53.644Z,3.20
2022-08-20T15:02:20.893Z,3.58
2022-08-20T15:04:54.037Z,4.00
2022-08-20T15:07:27.266Z,3.53
2022-08-20T15:09:56.172Z,3.15
2022-08-20T15:12:23.844Z,6.10
2022-08-20T15:14:51.246Z,2.55
2022-08-20T15:17:22.340Z,4.15
2022-08-20T15:19:49.381Z,3.28
2022-08-20T15:22:16.855Z,5.40
2022-08-20T15:24:43.729Z,3.50
2022-08-20T15:27:22.986Z,6.35
2022-08-20T15:32:17.696Z,3.17
2022-08-20T15:34:44.650Z,4.65
2022-08-20T15:37:14.479Z,3.83
2022-08-20T15:39:42.999Z,3.70
2022-08-20T15:42:10.399Z,4.07
2022-08-20T15:44:37.751Z,4.97
2022-08-20T15:47:16.385Z,4.28
2022-08-20T15:49:44.051Z,3.38
2022-08-20T15:52:13.250Z,3.33
2022-08-20T15:54:40.493Z,4.75
2022-08-20T16:03:14.954Z,3.00
2022-08-20T16:14:17.835Z,4.70
2022-08-20T16:17:10.136Z,3.10
2022-08-20T16:19:49.023Z,5.68
2022-08-20T16:22:18.162Z,5.68
2022-08-20T16:24:45.003Z,3.55
2022-08-20T16:36:20.459Z,3.35
2022-08-20T16:39:08.750Z,3.13
2022-08-20T16:41:46.326Z,3.67
2022-08-20T16:44:21.754Z,4.13
2022-08-20T16:47:22.807Z,5.18
2022-08-20T16:50:12.697Z,6.95
2022-08-20T16:52:42.196Z,3.70
2022-08-20T16:55:09.659Z,4.80
2022-08-20T16:57:36.508Z,4.90
2022-08-20T17:00:35.356Z,3.95
2022-08-20T17:05:49.688Z,5.95
2022-08-20T17:08:34.979Z,3.30
2022-08-20T17:11:12.254Z,4.72
2022-08-20T17:18:52.862Z,3.47
2022-08-20T17:21:28.762Z,3.90
2022-08-20T17:24:04.383Z,2.28
2022-08-20T17:26:41.895Z,1.80
2022-08-20T17:29:17.644Z,2.72
2022-08-20T17:31:47.910Z,2.40
2022-08-20T17:34:21.249Z,3.20
2022-08-20T17:36:57.645Z,3.20
2022-08-20T17:39:27.901Z,2.22
2022-08-20T17:42:26.101Z,2.33
2022-08-20T17:45:22.845Z,2.65
2022-08-20T17:47:50.960Z,3.90
2022-08-20T17:50:25.277Z,3.03
2022-08-20T17:52:56.617Z,3.03
2022-08-20T17:55:23.720Z,2.28
2022-08-20T17:57:53.267Z,2.85
2022-08-20T18:00:25.309Z,2.55
2022-08-20T18:03:11.486Z,4.15
2022-08-20T18:05:39.146Z,1.83
2022-08-20T18:08:16.736Z,3.00
2022-08-20T18:11:04.908Z,3.40
2022-08-20T18:20:11.219Z,3.88
2022-08-20T18:22:55.891Z,6.28
2022-08-20T18:28:01.556Z,6.35
2022-08-20T18:30:28.372Z,5.53
2022-08-20T18:35:45.786Z,5.95
2022-08-20T18:38:22.387Z,5.45
2022-08-20T18:40:54.439Z,7.03
2022-08-20T18:43:30.485Z,5.18
2022-08-20T18:46:12.201Z,4.95
2022-08-20T18:48:54.283Z,2.67
2022-08-20T18:51:28.526Z,3.90
2022-08-20T18:53:55.428Z,4.43
2022-08-20T18:56:40.646Z,2.67
2022-08-20T18:59:15.799Z,7.00
2022-08-20T19:01:44.165Z,3.58
2022-08-20T19:04:22.486Z,5.32
2022-08-20T19:07:02.004Z,3.92
2022-08-20T19:12:20.965Z,3.80
2022-08-20T19:15:00.569Z,4.22
2022-08-20T19:17:54.044Z,3.92
2022-08-20T19:20:24.333Z,5.05
2022-08-20T19:22:53.630Z,4.00
2022-08-20T19:28:32.132Z,3.08
2022-08-20T19:31:29.288Z,3.05
2022-08-20T19:34:20.233Z,4.65
2022-08-20T19:37:35.218Z,3.92
2022-08-20T19:40:25.700Z,4.00
2022-08-20T19:42:57.088Z,3.30
2022-08-20T19:45:31.693Z,3.20
2022-08-20T19:48:07.994Z,3.47
2022-08-20T19:51:06.626Z,5.68
2022-08-20T19:53:35.853Z,3.50
2022-08-20T19:56:23.793Z,4.50
2022-08-20T19:59:06.922Z,2.30
2022-08-20T20:01:34.262Z,5.05
2022-08-20T20:04:07.145Z,4.25
2022-08-20T20:06:40.923Z,3.53
2022-08-20T20:09:15.865Z,3.05
2022-08-20T20:11:56.453Z,2.45
2022-08-20T20:14:32.457Z,6.70
2022-08-20T20:17:00.080Z,3.47
2022-08-20T20:19:28.036Z,5.60
2022-08-20T20:22:20.139Z,2.95
2022-08-20T20:24:57.852Z,2.80
2022-08-20T20:27:26.467Z,4.72
2022-08-20T20:30:07.644Z,2.73
2022-08-20T20:32:34.898Z,4.40
2022-08-20T20:35:04.033Z,4.47
2022-08-20T20:37:49.656Z,3.55
2022-08-20T20:40:30.483Z,5.40
2022-08-20T20:43:04.885Z,4.65
2022-08-20T20:45:39.261Z,6.30
2022-08-20T20:48:15.245Z,4.00
2022-08-20T20:50:42.427Z,4.97
2022-08-20T20:53:09.317Z,4.13
2022-08-20T20:55:37.961Z,4.32
2022-08-20T20:58:04.936Z,3.35
2022-08-20T21:00:34.108Z,4.57
2022-08-20T21:03:02.848Z,4.45
2022-08-20T21:05:32.293Z,3.45
2022-08-20T21:08:02.713Z,3.90
2022-08-20T21:10:32.268Z,2.05
2022-08-20T21:12:59.913Z,4.03
2022-08-20T21:15:27.124Z,3.38
2022-08-20T21:17:54.113Z,5.95
2022-08-20T21:20:21.685Z,4.10
2022-08-20T21:22:48.480Z,2.78
2022-08-20T21:25:15.521Z,4.07
2022-08-20T21:27:48.187Z,2.92
2022-08-20T21:30:16.482Z,3.95
2022-08-20T21:32:43.427Z,3.92
2022-08-20T21:35:11.497Z,3.17
2022-08-20T21:37:38.763Z,3.83
2022-08-20T21:40:08.109Z,4.00
2022-08-20T21:42:37.092Z,3.75
2022-08-20T21:45:08.501Z,3.20
2022-08-20T21:47:35.879Z,3.13
2022-08-20T21:50:03.443Z,3.08
2022-08-20T21:52:30.253Z,5.50
2022-08-20T21:54:56.998Z,2.60
2022-08-20T21:57:29.256Z,3.60
2022-08-20T21:59:57.307Z,2.80
2022-08-20T22:02:25.263Z,2.75
2022-08-20T22:04:53.818Z,3.72
2022-08-20T22:07:21.516Z,150.75
2022-08-20T22:09:48.334Z,112.63
2022-08-20T22:12:21.043Z,96.93
2022-08-20T22:14:48.016Z,65.35
2022-08-20T22:19:42.463Z,44.38
2022-08-20T22:22:10.853Z,37.17
2022-08-20T22:24:38.016Z,32.90
2022-08-20T22:27:05.511Z,30.98
2022-08-20T22:29:32.815Z,28.52
2022-08-20T22:32:00.163Z,27.77
2022-08-20T22:37:00.919Z,24.35
2022-08-20T22:39:28.077Z,23.52
2022-08-20T22:41:54.905Z,22.67
2022-08-20T22:44:21.723Z,21.63
2022-08-20T22:46:52.631Z,20.05
2022-08-20T22:49:26.001Z,19.40
2022-08-20T22:54:23.312Z,17.88
2022-08-20T22:56:52.272Z,17.13
2022-08-20T22:59:21.150Z,17.43
2022-08-20T23:01:48.296Z,16.25
2022-08-20T23:04:25.712Z,15.75
2022-08-20T23:06:53.427Z,13.98
2022-08-20T23:09:20.948Z,14.15
2022-08-20T23:11:48.278Z,14.05
2022-08-20T23:14:15.102Z,12.85
2022-08-20T23:16:48.535Z,12.82
2022-08-20T23:19:22.685Z,12.07
2022-08-20T23:21:53.056Z,12.02
2022-08-20T23:24:19.969Z,10.82
2022-08-20T23:26:52.588Z,11.05
2022-08-20T23:29:22.564Z,10.40
2022-08-20T23:31:54.198Z,10.23
2022-08-20T23:34:21.146Z,9.85
2022-08-20T23:36:48.472Z,9.45
2022-08-20T23:39:17.423Z,10.18
2022-08-20T23:41:47.846Z,8.57
2022-08-20T23:44:26.226Z,8.10
2022-08-20T23:47:00.478Z,8.32
2022-08-20T23:49:28.186Z,7.95
2022-08-20T23:51:55.352Z,7.78
2022-08-20T23:54:22.175Z,8.02
2022-08-20T23:56:49.479Z,7.93
2022-08-20T23:59:16.538Z,7.40
